sensor_id;sensor_type;location;lat;lon;timestamp;P1;durP1;ratioP1;P2;durP2;ratioP2
77625;SDS011;66794;43.764;10.436;2023-12-07T00:01:36;79.55;;;24.25;;
77625;SDS011;66794;43.764;10.436;2023-12-07T00:04:22;62.92;;;23.90;;
77625;SDS011;66794;43.764;10.436;2023-12-07T00:07:08;54.15;;;24.05;;
77625;SDS011;66794;43.764;10.436;2023-12-07T00:09:54;64.07;;;26.27;;
77625;SDS011;66794;43.764;10.436;2023-12-07T00:12:40;90.95;;;24.60;;
77625;SDS011;66794;43.764;10.436;2023-12-07T00:15:26;92.55;;;23.27;;
77625;SDS011;66794;43.764;10.436;2023-12-07T00:18:12;71.50;;;23.52;;
77625;SDS011;66794;43.764;10.436;2023-12-07T00:20:57;57.00;;;23.38;;
77625;SDS011;66794;43.764;10.436;2023-12-07T00:23:43;55.83;;;23.25;;
77625;SDS011;66794;43.764;10.436;2023-12-07T00:26:29;53.83;;;22.95;;
77625;SDS011;66794;43.764;10.436;2023-12-07T00:29:15;53.88;;;22.45;;
77625;SDS011;66794;43.764;10.436;2023-12-07T00:32:01;58.67;;;23.50;;
77625;SDS011;66794;43.764;10.436;2023-12-07T00:34:46;70.15;;;19.02;;
77625;SDS011;66794;43.764;10.436;2023-12-07T00:37:32;59.53;;;19.77;;
77625;SDS011;66794;43.764;10.436;2023-12-07T00:40:18;72.43;;;18.15;;
77625;SDS011;66794;43.764;10.436;2023-12-07T00:43:03;74.53;;;18.67;;
77625;SDS011;66794;43.764;10.436;2023-12-07T00:45:49;70.55;;;20.83;;
77625;SDS011;66794;43.764;10.436;2023-12-07T00:48:35;55.10;;;20.48;;
77625;SDS011;66794;43.764;10.436;2023-12-07T00:51:21;69.00;;;20.38;;
77625;SDS011;66794;43.764;10.436;2023-12-07T00:54:06;72.65;;;21.65;;
77625;SDS011;66794;43.764;10.436;2023-12-07T00:56:52;57.25;;;21.75;;
77625;SDS011;66794;43.764;10.436;2023-12-07T00:59:38;59.10;;;20.77;;
77625;SDS011;66794;43.764;10.436;2023-12-07T01:02:24;70.07;;;21.95;;
77625;SDS011;66794;43.764;10.436;2023-12-07T01:05:09;60.63;;;21.52;;
77625;SDS011;66794;43.764;10.436;2023-12-07T01:07:55;54.00;;;20.90;;
77625;SDS011;66794;43.764;10.436;2023-12-07T01:10:41;56.35;;;21.02;;
77625;SDS011;66794;43.764;10.436;2023-12-07T01:13:27;51.50;;;20.73;;
77625;SDS011;66794;43.764;10.436;2023-12-07T01:16:13;45.78;;;20.52;;
77625;SDS011;66794;43.764;10.436;2023-12-07T01:18:58;44.40;;;20.55;;
77625;SDS011;66794;43.764;10.436;2023-12-07T01:21:44;42.58;;;20.17;;
77625;SDS011;66794;43.764;10.436;2023-12-07T01:24:30;44.28;;;20.17;;
77625;SDS011;66794;43.764;10.436;2023-12-07T01:27:16;38.30;;;19.13;;
77625;SDS011;66794;43.764;10.436;2023-12-07T01:30:02;41.63;;;19.60;;
77625;SDS011;66794;43.764;10.436;2023-12-07T01:32:48;47.67;;;19.55;;
77625;SDS011;66794;43.764;10.436;2023-12-07T01:35:34;39.15;;;19.60;;
77625;SDS011;66794;43.764;10.436;2023-12-07T01:38:20;44.78;;;20.10;;
77625;SDS011;66794;43.764;10.436;2023-12-07T01:41:06;47.40;;;18.70;;
77625;SDS011;66794;43.764;10.436;2023-12-07T01:43:51;45.17;;;19.63;;
77625;SDS011;66794;43.764;10.436;2023-12-07T01:46:37;40.65;;;19.13;;
77625;SDS011;66794;43.764;10.436;2023-12-07T01:49:23;42.42;;;19.42;;
77625;SDS011;66794;43.764;10.436;2023-12-07T01:52:09;41.30;;;19.40;;
77625;SDS011;66794;43.764;10.436;2023-12-07T01:54:56;39.65;;;19.77;;
77625;SDS011;66794;43.764;10.436;2023-12-07T01:57:43;44.25;;;19.95;;
77625;SDS011;66794;43.764;10.436;2023-12-07T02:00:30;51.47;;;20.52;;
77625;SDS011;66794;43.764;10.436;2023-12-07T02:03:16;47.88;;;20.35;;
77625;SDS011;66794;43.764;10.436;2023-12-07T02:06:02;41.97;;;19.38;;
77625;SDS011;66794;43.764;10.436;2023-12-07T02:08:49;38.67;;;19.25;;
77625;SDS011;66794;43.764;10.436;2023-12-07T02:11:35;39.80;;;19.30;;
77625;SDS011;66794;43.764;10.436;2023-12-07T02:14:20;40.50;;;19.20;;
77625;SDS011;66794;43.764;10.436;2023-12-07T02:23:14;39.17;;;18.95;;
77625;SDS011;66794;43.764;10.436;2023-12-07T02:26:03;37.33;;;19.38;;
77625;SDS011;66794;43.764;10.436;2023-12-07T02:28:52;39.88;;;20.33;;
77625;SDS011;66794;43.764;10.436;2023-12-07T02:31:38;40.97;;;18.90;;
77625;SDS011;66794;43.764;10.436;2023-12-07T02:34:23;38.95;;;19.90;;
77625;SDS011;66794;43.764;10.436;2023-12-07T02:37:09;40.13;;;20.08;;
77625;SDS011;66794;43.764;10.436;2023-12-07T02:39:56;42.60;;;18.85;;
77625;SDS011;66794;43.764;10.436;2023-12-07T02:42:42;39.72;;;19.13;;
77625;SDS011;66794;43.764;10.436;2023-12-07T02:45:28;36.40;;;19.08;;
77625;SDS011;66794;43.764;10.436;2023-12-07T02:48:14;38.38;;;17.50;;
77625;SDS011;66794;43.764;10.436;2023-12-07T02:51:02;38.55;;;19.08;;
77625;SDS011;66794;43.764;10.436;2023-12-07T02:53:48;37.53;;;18.48;;
77625;SDS011;66794;43.764;10.436;2023-12-07T02:56:34;46.97;;;19.20;;
77625;SDS011;66794;43.764;10.436;2023-12-07T02:59:20;40.15;;;19.60;;
77625;SDS011;66794;43.764;10.436;2023-12-07T03:02:05;40.53;;;20.48;;
77625;SDS011;66794;43.764;10.436;2023-12-07T03:04:52;40.55;;;19.13;;
77625;SDS011;66794;43.764;10.436;2023-12-07T03:07:37;42.50;;;19.55;;
77625;SDS011;66794;43.764;10.436;2023-12-07T03:10:23;40.17;;;18.92;;
77625;SDS011;66794;43.764;10.436;2023-12-07T03:13:09;36.00;;;18.00;;
77625;SDS011;66794;43.764;10.436;2023-12-07T03:15:55;37.67;;;18.92;;
77625;SDS011;66794;43.764;10.436;2023-12-07T03:18:40;41.35;;;19.13;;
77625;SDS011;66794;43.764;10.436;2023-12-07T03:21:26;34.63;;;17.58;;
77625;SDS011;66794;43.764;10.436;2023-12-07T03:24:12;33.83;;;16.70;;
77625;SDS011;66794;43.764;10.436;2023-12-07T03:26:58;36.78;;;18.10;;
77625;SDS011;66794;43.764;10.436;2023-12-07T03:29:44;34.38;;;17.38;;
77625;SDS011;66794;43.764;10.436;2023-12-07T03:32:29;31.33;;;16.58;;
77625;SDS011;66794;43.764;10.436;2023-12-07T03:35:15;28.67;;;15.57;;
77625;SDS011;66794;43.764;10.436;2023-12-07T03:38:02;31.77;;;16.33;;
77625;SDS011;66794;43.764;10.436;2023-12-07T03:40:48;31.63;;;16.35;;
77625;SDS011;66794;43.764;10.436;2023-12-07T03:43:35;31.05;;;16.42;;
77625;SDS011;66794;43.764;10.436;2023-12-07T03:46:20;32.15;;;16.55;;
77625;SDS011;66794;43.764;10.436;2023-12-07T03:49:06;36.28;;;17.85;;
77625;SDS011;66794;43.764;10.436;2023-12-07T03:51:52;36.08;;;17.95;;
77625;SDS011;66794;43.764;10.436;2023-12-07T03:54:38;36.10;;;18.70;;
77625;SDS011;66794;43.764;10.436;2023-12-07T03:57:23;32.85;;;17.23;;
77625;SDS011;66794;43.764;10.436;2023-12-07T04:00:10;35.08;;;18.02;;
77625;SDS011;66794;43.764;10.436;2023-12-07T04:02:56;33.00;;;18.05;;
77625;SDS011;66794;43.764;10.436;2023-12-07T04:05:42;34.22;;;17.13;;
77625;SDS011;66794;43.764;10.436;2023-12-07T04:08:28;34.85;;;18.70;;
77625;SDS011;66794;43.764;10.436;2023-12-07T04:11:14;34.63;;;17.15;;
77625;SDS011;66794;43.764;10.436;2023-12-07T04:14:00;35.47;;;16.98;;
77625;SDS011;66794;43.764;10.436;2023-12-07T04:16:45;36.95;;;17.00;;
77625;SDS011;66794;43.764;10.436;2023-12-07T04:19:31;39.47;;;18.05;;
77625;SDS011;66794;43.764;10.436;2023-12-07T04:22:17;33.35;;;16.33;;
77625;SDS011;66794;43.764;10.436;2023-12-07T04:25:03;36.63;;;16.30;;
77625;SDS011;66794;43.764;10.436;2023-12-07T04:27:50;37.60;;;15.75;;
77625;SDS011;66794;43.764;10.436;2023-12-07T04:30:35;32.42;;;15.68;;
77625;SDS011;66794;43.764;10.436;2023-12-07T04:33:21;29.38;;;14.88;;
77625;SDS011;66794;43.764;10.436;2023-12-07T04:36:07;30.48;;;14.93;;
77625;SDS011;66794;43.764;10.436;2023-12-07T04:38:53;26.35;;;13.70;;
77625;SDS011;66794;43.764;10.436;2023-12-07T04:41:39;27.30;;;13.02;;
77625;SDS011;66794;43.764;10.436;2023-12-07T04:44:25;25.42;;;13.30;;
77625;SDS011;66794;43.764;10.436;2023-12-07T04:47:11;25.77;;;12.82;;
77625;SDS011;66794;43.764;10.436;2023-12-07T04:49:57;28.25;;;13.23;;
77625;SDS011;66794;43.764;10.436;2023-12-07T04:52:43;27.25;;;13.63;;
77625;SDS011;66794;43.764;10.436;2023-12-07T04:55:29;29.33;;;14.07;;
77625;SDS011;66794;43.764;10.436;2023-12-07T04:58:14;26.38;;;13.82;;
77625;SDS011;66794;43.764;10.436;2023-12-07T05:01:01;27.80;;;14.00;;
77625;SDS011;66794;43.764;10.436;2023-12-07T05:03:48;28.08;;;13.95;;
77625;SDS011;66794;43.764;10.436;2023-12-07T05:06:34;26.70;;;13.23;;
77625;SDS011;66794;43.764;10.436;2023-12-07T05:09:19;25.38;;;13.32;;
77625;SDS011;66794;43.764;10.436;2023-12-07T05:12:07;29.02;;;14.45;;
77625;SDS011;66794;43.764;10.436;2023-12-07T05:14:52;26.05;;;13.50;;
77625;SDS011;66794;43.764;10.436;2023-12-07T05:17:38;26.60;;;14.27;;
77625;SDS011;66794;43.764;10.436;2023-12-07T05:20:24;26.10;;;13.68;;
77625;SDS011;66794;43.764;10.436;2023-12-07T05:23:12;23.83;;;12.93;;
77625;SDS011;66794;43.764;10.436;2023-12-07T05:25:58;30.35;;;14.32;;
77625;SDS011;66794;43.764;10.436;2023-12-07T05:28:43;25.90;;;12.82;;
77625;SDS011;66794;43.764;10.436;2023-12-07T05:31:29;24.63;;;12.57;;
77625;SDS011;66794;43.764;10.436;2023-12-07T05:34:15;29.30;;;13.68;;
77625;SDS011;66794;43.764;10.436;2023-12-07T05:37:01;26.80;;;12.63;;
77625;SDS011;66794;43.764;10.436;2023-12-07T05:39:47;25.15;;;13.48;;
77625;SDS011;66794;43.764;10.436;2023-12-07T05:42:33;25.23;;;13.20;;
77625;SDS011;66794;43.764;10.436;2023-12-07T05:45:18;24.15;;;12.48;;
77625;SDS011;66794;43.764;10.436;2023-12-07T05:48:04;24.35;;;12.55;;
77625;SDS011;66794;43.764;10.436;2023-12-07T05:50:50;25.48;;;13.57;;
77625;SDS011;66794;43.764;10.436;2023-12-07T05:53:36;27.08;;;14.40;;
77625;SDS011;66794;43.764;10.436;2023-12-07T05:56:22;25.35;;;13.27;;
77625;SDS011;66794;43.764;10.436;2023-12-07T05:59:08;27.63;;;15.45;;
77625;SDS011;66794;43.764;10.436;2023-12-07T06:01:54;26.75;;;13.07;;
77625;SDS011;66794;43.764;10.436;2023-12-07T06:04:40;24.05;;;12.73;;
77625;SDS011;66794;43.764;10.436;2023-12-07T06:07:26;25.65;;;12.75;;
77625;SDS011;66794;43.764;10.436;2023-12-07T06:10:11;26.95;;;12.93;;
77625;SDS011;66794;43.764;10.436;2023-12-07T06:12:58;27.23;;;13.75;;
77625;SDS011;66794;43.764;10.436;2023-12-07T06:15:46;24.80;;;12.50;;
77625;SDS011;66794;43.764;10.436;2023-12-07T06:18:31;29.42;;;14.15;;
77625;SDS011;66794;43.764;10.436;2023-12-07T06:21:17;26.33;;;13.68;;
77625;SDS011;66794;43.764;10.436;2023-12-07T06:24:03;25.27;;;13.27;;
77625;SDS011;66794;43.764;10.436;2023-12-07T06:26:50;28.67;;;13.65;;
77625;SDS011;66794;43.764;10.436;2023-12-07T06:29:37;28.33;;;10.23;;
77625;SDS011;66794;43.764;10.436;2023-12-07T06:32:23;27.08;;;12.82;;
77625;SDS011;66794;43.764;10.436;2023-12-07T06:35:11;36.83;;;17.60;;
77625;SDS011;66794;43.764;10.436;2023-12-07T06:37:57;25.27;;;13.52;;
77625;SDS011;66794;43.764;10.436;2023-12-07T06:40:43;24.23;;;12.82;;
77625;SDS011;66794;43.764;10.436;2023-12-07T06:43:29;22.88;;;12.40;;
77625;SDS011;66794;43.764;10.436;2023-12-07T06:46:15;25.65;;;13.07;;
77625;SDS011;66794;43.764;10.436;2023-12-07T06:49:01;23.90;;;12.60;;
77625;SDS011;66794;43.764;10.436;2023-12-07T06:51:47;24.45;;;12.13;;
77625;SDS011;66794;43.764;10.436;2023-12-07T06:54:33;22.15;;;12.13;;
77625;SDS011;66794;43.764;10.436;2023-12-07T06:57:20;22.48;;;11.80;;
77625;SDS011;66794;43.764;10.436;2023-12-07T07:00:06;25.88;;;13.07;;
77625;SDS011;66794;43.764;10.436;2023-12-07T07:02:55;21.52;;;12.50;;
77625;SDS011;66794;43.764;10.436;2023-12-07T07:05:41;26.05;;;13.52;;
77625;SDS011;66794;43.764;10.436;2023-12-07T07:08:27;27.88;;;15.43;;
77625;SDS011;66794;43.764;10.436;2023-12-07T07:11:13;25.38;;;14.32;;
77625;SDS011;66794;43.764;10.436;2023-12-07T07:14:00;25.77;;;13.30;;
77625;SDS011;66794;43.764;10.436;2023-12-07T07:16:46;26.52;;;13.52;;
77625;SDS011;66794;43.764;10.436;2023-12-07T07:19:32;27.33;;;13.50;;
77625;SDS011;66794;43.764;10.436;2023-12-07T07:22:18;31.65;;;16.10;;
77625;SDS011;66794;43.764;10.436;2023-12-07T07:25:03;29.60;;;15.00;;
77625;SDS011;66794;43.764;10.436;2023-12-07T07:27:49;39.88;;;16.27;;
77625;SDS011;66794;43.764;10.436;2023-12-07T07:30:36;30.88;;;15.15;;
77625;SDS011;66794;43.764;10.436;2023-12-07T07:33:21;32.53;;;15.68;;
77625;SDS011;66794;43.764;10.436;2023-12-07T07:36:07;37.65;;;15.25;;
77625;SDS011;66794;43.764;10.436;2023-12-07T07:38:53;32.35;;;16.40;;
77625;SDS011;66794;43.764;10.436;2023-12-07T07:41:39;30.33;;;14.68;;
77625;SDS011;66794;43.764;10.436;2023-12-07T07:44:26;29.67;;;15.13;;
77625;SDS011;66794;43.764;10.436;2023-12-07T07:47:12;34.58;;;17.38;;
77625;SDS011;66794;43.764;10.436;2023-12-07T07:49:58;113.53;;;53.60;;
77625;SDS011;66794;43.764;10.436;2023-12-07T07:52:44;36.30;;;19.15;;
77625;SDS011;66794;43.764;10.436;2023-12-07T07:55:30;31.90;;;16.27;;
77625;SDS011;66794;43.764;10.436;2023-12-07T07:58:17;32.38;;;17.45;;
77625;SDS011;66794;43.764;10.436;2023-12-07T08:01:02;28.45;;;14.15;;
77625;SDS011;66794;43.764;10.436;2023-12-07T08:03:48;26.67;;;13.73;;
77625;SDS011;66794;43.764;10.436;2023-12-07T08:06:34;26.63;;;14.75;;
77625;SDS011;66794;43.764;10.436;2023-12-07T08:09:20;25.73;;;13.68;;
77625;SDS011;66794;43.764;10.436;2023-12-07T08:12:06;24.60;;;13.40;;
77625;SDS011;66794;43.764;10.436;2023-12-07T08:14:53;44.15;;;26.40;;
77625;SDS011;66794;43.764;10.436;2023-12-07T08:17:39;33.45;;;18.98;;
77625;SDS011;66794;43.764;10.436;2023-12-07T08:20:26;32.33;;;18.50;;
77625;SDS011;66794;43.764;10.436;2023-12-07T08:23:11;48.58;;;29.42;;
77625;SDS011;66794;43.764;10.436;2023-12-07T08:25:57;32.47;;;16.83;;
77625;SDS011;66794;43.764;10.436;2023-12-07T08:28:43;44.05;;;24.90;;
77625;SDS011;66794;43.764;10.436;2023-12-07T08:31:29;27.88;;;15.05;;
77625;SDS011;66794;43.764;10.436;2023-12-07T08:34:15;31.52;;;16.40;;
77625;SDS011;66794;43.764;10.436;2023-12-07T08:37:00;32.83;;;17.60;;
77625;SDS011;66794;43.764;10.436;2023-12-07T08:39:48;31.48;;;19.40;;
77625;SDS011;66794;43.764;10.436;2023-12-07T08:42:34;40.63;;;20.83;;
77625;SDS011;66794;43.764;10.436;2023-12-07T08:45:20;30.67;;;17.83;;
77625;SDS011;66794;43.764;10.436;2023-12-07T08:48:05;26.92;;;16.23;;
77625;SDS011;66794;43.764;10.436;2023-12-07T08:50:51;30.13;;;17.02;;
77625;SDS011;66794;43.764;10.436;2023-12-07T08:53:40;31.67;;;15.55;;
77625;SDS011;66794;43.764;10.436;2023-12-07T08:56:26;26.05;;;13.18;;
77625;SDS011;66794;43.764;10.436;2023-12-07T08:59:12;25.75;;;13.57;;
77625;SDS011;66794;43.764;10.436;2023-12-07T09:01:58;24.63;;;13.70;;
77625;SDS011;66794;43.764;10.436;2023-12-07T09:04:44;22.55;;;12.45;;
77625;SDS011;66794;43.764;10.436;2023-12-07T09:07:29;21.05;;;12.15;;
77625;SDS011;66794;43.764;10.436;2023-12-07T09:10:15;25.88;;;15.05;;
77625;SDS011;66794;43.764;10.436;2023-12-07T09:13:01;24.42;;;13.75;;
77625;SDS011;66794;43.764;10.436;2023-12-07T09:15:47;28.80;;;15.52;;
77625;SDS011;66794;43.764;10.436;2023-12-07T09:18:33;30.67;;;15.85;;
77625;SDS011;66794;43.764;10.436;2023-12-07T09:21:20;21.75;;;11.70;;
77625;SDS011;66794;43.764;10.436;2023-12-07T09:24:06;22.45;;;12.73;;
77625;SDS011;66794;43.764;10.436;2023-12-07T09:26:52;22.48;;;12.57;;
77625;SDS011;66794;43.764;10.436;2023-12-07T09:29:38;24.40;;;13.73;;
77625;SDS011;66794;43.764;10.436;2023-12-07T09:32:23;24.27;;;12.80;;
77625;SDS011;66794;43.764;10.436;2023-12-07T09:35:12;22.83;;;12.50;;
77625;SDS011;66794;43.764;10.436;2023-12-07T09:38:04;24.45;;;12.38;;
77625;SDS011;66794;43.764;10.436;2023-12-07T09:40:53;23.83;;;12.85;;
77625;SDS011;66794;43.764;10.436;2023-12-07T09:43:39;22.08;;;12.95;;
77625;SDS011;66794;43.764;10.436;2023-12-07T09:46:25;23.02;;;13.18;;
77625;SDS011;66794;43.764;10.436;2023-12-07T09:49:12;25.60;;;13.20;;
77625;SDS011;66794;43.764;10.436;2023-12-07T09:51:58;26.67;;;15.80;;
77625;SDS011;66794;43.764;10.436;2023-12-07T09:54:46;30.13;;;17.40;;
77625;SDS011;66794;43.764;10.436;2023-12-07T09:57:32;27.17;;;15.23;;
77625;SDS011;66794;43.764;10.436;2023-12-07T10:00:19;24.80;;;15.02;;
77625;SDS011;66794;43.764;10.436;2023-12-07T10:03:05;26.45;;;15.73;;
77625;SDS011;66794;43.764;10.436;2023-12-07T10:05:56;28.00;;;16.50;;
77625;SDS011;66794;43.764;10.436;2023-12-07T10:08:47;27.80;;;16.23;;
77625;SDS011;66794;43.764;10.436;2023-12-07T10:11:33;27.88;;;16.38;;
77625;SDS011;66794;43.764;10.436;2023-12-07T10:14:19;29.00;;;16.88;;
77625;SDS011;66794;43.764;10.436;2023-12-07T10:17:05;29.73;;;17.20;;
77625;SDS011;66794;43.764;10.436;2023-12-07T10:20:06;29.10;;;15.93;;
77625;SDS011;66794;43.764;10.436;2023-12-07T10:23:01;31.50;;;17.60;;
77625;SDS011;66794;43.764;10.436;2023-12-07T10:25:52;26.92;;;16.85;;
77625;SDS011;66794;43.764;10.436;2023-12-07T10:28:39;26.10;;;15.55;;
77625;SDS011;66794;43.764;10.436;2023-12-07T10:31:25;26.75;;;16.52;;
77625;SDS011;66794;43.764;10.436;2023-12-07T10:34:11;30.83;;;17.58;;
77625;SDS011;66794;43.764;10.436;2023-12-07T10:36:57;40.40;;;21.67;;
77625;SDS011;66794;43.764;10.436;2023-12-07T10:39:43;33.55;;;19.10;;
77625;SDS011;66794;43.764;10.436;2023-12-07T10:42:30;36.28;;;20.67;;
77625;SDS011;66794;43.764;10.436;2023-12-07T10:45:18;32.67;;;18.77;;
77625;SDS011;66794;43.764;10.436;2023-12-07T10:48:07;34.88;;;19.55;;
77625;SDS011;66794;43.764;10.436;2023-12-07T10:50:54;36.53;;;19.55;;
77625;SDS011;66794;43.764;10.436;2023-12-07T10:53:45;32.83;;;19.50;;
77625;SDS011;66794;43.764;10.436;2023-12-07T10:56:42;37.78;;;20.10;;
77625;SDS011;66794;43.764;10.436;2023-12-07T10:59:30;36.15;;;19.42;;
77625;SDS011;66794;43.764;10.436;2023-12-07T11:02:17;37.90;;;21.10;;
77625;SDS011;66794;43.764;10.436;2023-12-07T11:05:05;43.75;;;24.65;;
77625;SDS011;66794;43.764;10.436;2023-12-07T11:07:57;42.88;;;24.17;;
77625;SDS011;66794;43.764;10.436;2023-12-07T11:14:06;43.17;;;23.85;;
77625;SDS011;66794;43.764;10.436;2023-12-07T11:16:53;42.47;;;24.33;;
77625;SDS011;66794;43.764;10.436;2023-12-07T11:22:25;40.85;;;21.92;;
77625;SDS011;66794;43.764;10.436;2023-12-07T11:25:11;41.75;;;23.98;;
77625;SDS011;66794;43.764;10.436;2023-12-07T11:28:00;42.92;;;24.85;;
77625;SDS011;66794;43.764;10.436;2023-12-07T11:30:47;45.17;;;24.42;;
77625;SDS011;66794;43.764;10.436;2023-12-07T11:33:37;37.58;;;21.67;;
77625;SDS011;66794;43.764;10.436;2023-12-07T11:36:24;36.85;;;21.48;;
77625;SDS011;66794;43.764;10.436;2023-12-07T11:42:05;41.50;;;22.30;;
77625;SDS011;66794;43.764;10.436;2023-12-07T11:44:53;40.42;;;22.70;;
77625;SDS011;66794;43.764;10.436;2023-12-07T11:47:39;40.17;;;23.05;;
77625;SDS011;66794;43.764;10.436;2023-12-07T11:50:25;38.97;;;22.27;;
77625;SDS011;66794;43.764;10.436;2023-12-07T11:53:10;35.97;;;21.60;;
77625;SDS011;66794;43.764;10.436;2023-12-07T11:55:57;35.08;;;20.52;;
77625;SDS011;66794;43.764;10.436;2023-12-07T11:58:43;39.30;;;21.48;;
77625;SDS011;66794;43.764;10.436;2023-12-07T12:01:30;36.25;;;21.23;;
77625;SDS011;66794;43.764;10.436;2023-12-07T12:04:15;38.97;;;22.00;;
77625;SDS011;66794;43.764;10.436;2023-12-07T12:07:02;36.60;;;21.42;;
77625;SDS011;66794;43.764;10.436;2023-12-07T12:09:48;38.45;;;22.33;;
77625;SDS011;66794;43.764;10.436;2023-12-07T12:12:34;39.65;;;23.05;;
77625;SDS011;66794;43.764;10.436;2023-12-07T12:15:20;36.13;;;21.27;;
77625;SDS011;66794;43.764;10.436;2023-12-07T12:18:06;34.50;;;20.55;;
77625;SDS011;66794;43.764;10.436;2023-12-07T12:20:52;31.15;;;19.67;;
77625;SDS011;66794;43.764;10.436;2023-12-07T12:23:39;31.50;;;18.23;;
77625;SDS011;66794;43.764;10.436;2023-12-07T12:26:25;33.13;;;18.92;;
77625;SDS011;66794;43.764;10.436;2023-12-07T12:29:11;33.38;;;19.45;;
77625;SDS011;66794;43.764;10.436;2023-12-07T12:31:57;32.08;;;20.98;;
77625;SDS011;66794;43.764;10.436;2023-12-07T12:34:43;27.00;;;17.55;;
77625;SDS011;66794;43.764;10.436;2023-12-07T12:37:30;32.47;;;19.27;;
77625;SDS011;66794;43.764;10.436;2023-12-07T12:40:18;30.77;;;18.98;;
77625;SDS011;66794;43.764;10.436;2023-12-07T12:43:05;30.55;;;18.73;;
77625;SDS011;66794;43.764;10.436;2023-12-07T12:45:51;27.13;;;17.40;;
77625;SDS011;66794;43.764;10.436;2023-12-07T12:48:51;27.50;;;17.10;;
77625;SDS011;66794;43.764;10.436;2023-12-07T12:51:41;30.88;;;18.30;;
77625;SDS011;66794;43.764;10.436;2023-12-07T12:54:30;26.02;;;17.02;;
77625;SDS011;66794;43.764;10.436;2023-12-07T12:57:17;28.00;;;16.83;;
77625;SDS011;66794;43.764;10.436;2023-12-07T13:00:04;26.50;;;17.35;;
77625;SDS011;66794;43.764;10.436;2023-12-07T13:02:52;26.67;;;16.67;;
77625;SDS011;66794;43.764;10.436;2023-12-07T13:05:38;31.52;;;20.08;;
77625;SDS011;66794;43.764;10.436;2023-12-07T13:08:23;35.55;;;23.10;;
77625;SDS011;66794;43.764;10.436;2023-12-07T13:11:09;38.13;;;23.52;;
77625;SDS011;66794;43.764;10.436;2023-12-07T13:14:00;38.42;;;22.17;;
77625;SDS011;66794;43.764;10.436;2023-12-07T13:16:52;30.33;;;18.85;;
77625;SDS011;66794;43.764;10.436;2023-12-07T13:19:38;33.65;;;20.42;;
77625;SDS011;66794;43.764;10.436;2023-12-07T13:22:24;47.20;;;26.67;;
77625;SDS011;66794;43.764;10.436;2023-12-07T13:25:10;42.85;;;25.98;;
77625;SDS011;66794;43.764;10.436;2023-12-07T13:27:57;43.90;;;25.98;;
77625;SDS011;66794;43.764;10.436;2023-12-07T13:30:44;48.38;;;27.55;;
77625;SDS011;66794;43.764;10.436;2023-12-07T13:33:30;46.38;;;27.58;;
77625;SDS011;66794;43.764;10.436;2023-12-07T13:36:16;46.83;;;27.23;;
77625;SDS011;66794;43.764;10.436;2023-12-07T13:39:05;47.83;;;26.90;;
77625;SDS011;66794;43.764;10.436;2023-12-07T13:41:51;54.33;;;27.63;;
77625;SDS011;66794;43.764;10.436;2023-12-07T13:44:37;47.78;;;27.23;;
77625;SDS011;66794;43.764;10.436;2023-12-07T13:47:24;52.08;;;29.85;;
77625;SDS011;66794;43.764;10.436;2023-12-07T13:50:15;45.40;;;27.63;;
77625;SDS011;66794;43.764;10.436;2023-12-07T13:53:01;51.72;;;31.30;;
77625;SDS011;66794;43.764;10.436;2023-12-07T13:55:47;51.45;;;32.33;;
77625;SDS011;66794;43.764;10.436;2023-12-07T13:58:32;53.38;;;31.17;;
77625;SDS011;66794;43.764;10.436;2023-12-07T14:01:20;50.40;;;31.38;;
77625;SDS011;66794;43.764;10.436;2023-12-07T14:04:06;53.30;;;32.72;;
77625;SDS011;66794;43.764;10.436;2023-12-07T14:06:53;54.95;;;31.77;;
77625;SDS011;66794;43.764;10.436;2023-12-07T14:09:40;47.45;;;28.92;;
77625;SDS011;66794;43.764;10.436;2023-12-07T14:12:28;48.65;;;29.75;;
77625;SDS011;66794;43.764;10.436;2023-12-07T14:15:13;51.65;;;30.42;;
77625;SDS011;66794;43.764;10.436;2023-12-07T14:18:00;46.42;;;27.92;;
77625;SDS011;66794;43.764;10.436;2023-12-07T14:20:46;52.17;;;29.85;;
77625;SDS011;66794;43.764;10.436;2023-12-07T14:23:32;52.58;;;29.67;;
77625;SDS011;66794;43.764;10.436;2023-12-07T14:26:18;50.08;;;29.83;;
77625;SDS011;66794;43.764;10.436;2023-12-07T14:29:05;50.53;;;29.63;;
77625;SDS011;66794;43.764;10.436;2023-12-07T14:31:53;55.47;;;29.90;;
77625;SDS011;66794;43.764;10.436;2023-12-07T14:34:39;53.05;;;28.65;;
77625;SDS011;66794;43.764;10.436;2023-12-07T14:37:25;47.00;;;28.63;;
77625;SDS011;66794;43.764;10.436;2023-12-07T14:40:11;52.90;;;30.30;;
77625;SDS011;66794;43.764;10.436;2023-12-07T14:43:01;54.45;;;29.50;;
77625;SDS011;66794;43.764;10.436;2023-12-07T14:45:49;53.25;;;30.50;;
77625;SDS011;66794;43.764;10.436;2023-12-07T14:48:34;52.58;;;28.38;;
77625;SDS011;66794;43.764;10.436;2023-12-07T14:51:24;53.10;;;30.17;;
77625;SDS011;66794;43.764;10.436;2023-12-07T14:54:10;54.20;;;31.92;;
77625;SDS011;66794;43.764;10.436;2023-12-07T14:56:56;60.17;;;31.15;;
77625;SDS011;66794;43.764;10.436;2023-12-07T14:59:43;54.00;;;30.67;;
77625;SDS011;66794;43.764;10.436;2023-12-07T15:02:29;57.20;;;31.08;;
77625;SDS011;66794;43.764;10.436;2023-12-07T15:05:15;56.65;;;30.35;;
77625;SDS011;66794;43.764;10.436;2023-12-07T15:08:01;58.92;;;31.80;;
77625;SDS011;66794;43.764;10.436;2023-12-07T15:10:48;59.90;;;30.83;;
77625;SDS011;66794;43.764;10.436;2023-12-07T15:13:37;65.13;;;34.47;;
77625;SDS011;66794;43.764;10.436;2023-12-07T15:16:23;70.30;;;37.45;;
77625;SDS011;66794;43.764;10.436;2023-12-07T15:19:09;70.50;;;36.60;;
77625;SDS011;66794;43.764;10.436;2023-12-07T15:21:54;73.25;;;36.80;;
77625;SDS011;66794;43.764;10.436;2023-12-07T15:24:40;60.83;;;33.55;;
77625;SDS011;66794;43.764;10.436;2023-12-07T15:27:26;69.25;;;34.40;;
77625;SDS011;66794;43.764;10.436;2023-12-07T15:30:12;66.57;;;33.92;;
77625;SDS011;66794;43.764;10.436;2023-12-07T15:32:59;71.68;;;35.58;;
77625;SDS011;66794;43.764;10.436;2023-12-07T15:35:44;71.32;;;36.05;;
77625;SDS011;66794;43.764;10.436;2023-12-07T15:38:30;68.20;;;34.72;;
77625;SDS011;66794;43.764;10.436;2023-12-07T15:41:16;72.65;;;35.83;;
77625;SDS011;66794;43.764;10.436;2023-12-07T15:44:02;74.82;;;36.65;;
77625;SDS011;66794;43.764;10.436;2023-12-07T15:46:48;68.82;;;35.67;;
77625;SDS011;66794;43.764;10.436;2023-12-07T15:49:34;81.65;;;39.28;;
77625;SDS011;66794;43.764;10.436;2023-12-07T15:52:20;76.68;;;39.17;;
77625;SDS011;66794;43.764;10.436;2023-12-07T15:55:06;70.03;;;36.53;;
77625;SDS011;66794;43.764;10.436;2023-12-07T15:57:52;76.22;;;37.45;;
77625;SDS011;66794;43.764;10.436;2023-12-07T16:00:38;71.85;;;36.33;;
77625;SDS011;66794;43.764;10.436;2023-12-07T16:03:24;70.75;;;34.38;;
77625;SDS011;66794;43.764;10.436;2023-12-07T16:06:11;77.30;;;35.60;;
77625;SDS011;66794;43.764;10.436;2023-12-07T16:08:57;78.10;;;36.83;;
77625;SDS011;66794;43.764;10.436;2023-12-07T16:11:42;75.38;;;36.90;;
77625;SDS011;66794;43.764;10.436;2023-12-07T16:14:28;80.70;;;38.35;;